Time;durP1;ratioP1;P1;durP2;ratioP2;P2;SDS_P1;SDS_P2;PMS_P1;PMS_P2;Temp;Humidity;BMP_temperature;BMP_pressure;BME280_temperature;BME280_humidity;BME280_pressure;Samples;Min_cycle;Max_cycle;Signal;HPM_P1;HPM_P2
2022/05/26 00:01:20;;;;;;;22.98;13.65;;;13.70;99.90;;;;;;5057361;28;20099;-72
2022/05/26 00:03:46;;;;;;;23.17;15.18;;;13.70;99.90;;;;;;5042149;28;20028;-71
2022/05/26 00:06:15;;;;;;;25.58;15.40;;;13.70;99.90;;;;;;5054201;28;20056;-71
2022/05/26 00:08:41;;;;;;;29.45;15.95;;;13.60;99.90;;;;;;5030318;28;20041;-71
2022/05/26 00:11:13;;;;;;;27.02;16.48;;;13.60;99.90;;;;;;5050636;28;20048;-71
2022/05/26 00:13:40;;;;;;;22.40;15.10;;;13.60;99.90;;;;;;5034178;28;20036;-72
2022/05/26 00:16:06;;;;;;;30.85;17.00;;;13.60;99.90;;;;;;5053117;28;20092;-72
2022/05/26 00:18:31;;;;;;;31.27;17.23;;;13.60;99.90;;;;;;5056233;28;20044;-72
2022/05/26 00:20:57;;;;;;;31.65;18.60;;;13.60;99.90;;;;;;5054017;28;20033;-73
2022/05/26 00:23:23;;;;;;;29.90;17.55;;;13.70;99.90;;;;;;5051724;28;20075;-72
2022/05/26 00:25:49;;;;;;;30.27;16.50;;;13.70;99.90;;;;;;5056208;28;20116;-72
2022/05/26 00:28:15;;;;;;;32.33;16.45;;;13.70;99.90;;;;;;5062300;28;20124;-72
2022/05/26 00:30:40;;;;;;;30.92;17.67;;;13.80;99.90;;;;;;5052340;28;20045;-73
2022/05/26 00:33:07;;;;;;;30.38;18.08;;;13.80;99.90;;;;;;5054434;28;20040;-72
2022/05/26 00:35:34;;;;;;;28.38;17.67;;;13.80;99.90;;;;;;5052708;28;20112;-72
2022/05/26 00:38:04;;;;;;;30.92;17.05;;;13.90;99.90;;;;;;5053567;28;20062;-73
2022/05/26 00:40:31;;;;;;;32.30;17.65;;;13.80;99.90;;;;;;5051772;28;20060;-73
2022/05/26 00:42:58;;;;;;;34.05;18.08;;;13.80;99.90;;;;;;5052690;28;20043;-72
2022/05/26 00:45:24;;;;;;;30.98;18.75;;;13.80;99.90;;;;;;5052799;28;20040;-73
2022/05/26 00:47:51;;;;;;;33.58;18.48;;;13.80;99.90;;;;;;5047815;28;20040;-73
2022/05/26 00:50:25;;;;;;;30.40;18.88;;;13.80;99.90;;;;;;5053813;28;20124;-73
2022/05/26 00:52:54;;;;;;;32.20;19.70;;;13.80;99.90;;;;;;5048728;28;20044;-73
2022/05/26 00:55:26;;;;;;;34.83;20.08;;;13.90;99.90;;;;;;5055944;28;20041;-73
2022/05/26 00:58:06;;;;;;;36.47;20.02;;;13.80;99.90;;;;;;5052142;28;20079;-73
2022/05/26 01:00:35;;;;;;;33.53;19.27;;;13.80;99.90;;;;;;5050224;28;20087;-73
2022/05/26 01:03:18;;;;;;;39.40;19.65;;;13.80;99.90;;;;;;5048101;28;20056;-72
2022/05/26 01:05:55;;;;;;;45.80;22.63;;;13.90;99.90;;;;;;5048615;28;20045;-73
2022/05/26 01:08:54;;;;;;;43.60;21.35;;;13.90;99.90;;;;;;5050341;28;20048;-73
2022/05/26 01:11:20;;;;;;;42.95;21.75;;;13.80;99.90;;;;;;5046648;28;20115;-72
2022/05/26 01:13:49;;;;;;;41.97;20.92;;;13.80;99.90;;;;;;5048099;28;20045;-73
2022/05/26 01:16:36;;;;;;;46.20;21.77;;;13.90;99.90;;;;;;5049827;28;20064;-73
2022/05/26 01:19:36;;;;;;;40.72;19.83;;;13.90;99.90;;;;;;5048742;28;20040;-73
2022/05/26 01:22:11;;;;;;;43.42;20.17;;;13.90;99.90;;;;;;5048546;28;20037;-73
2022/05/26 01:24:49;;;;;;;43.53;20.70;;;13.90;99.90;;;;;;5049181;28;20138;-73
2022/05/26 01:27:25;;;;;;;43.78;21.20;;;13.90;99.90;;;;;;5048053;28;20049;-73
2022/05/26 01:30:25;;;;;;;36.75;19.35;;;13.90;99.90;;;;;;5046772;28;20589;-73
2022/05/26 01:32:58;;;;;;;44.80;20.30;;;13.90;99.90;;;;;;5043676;28;20061;-73
2022/05/26 01:35:28;;;;;;;42.15;21.00;;;13.90;99.90;;;;;;5049558;28;20033;-73
2022/05/26 01:38:07;;;;;;;42.97;19.75;;;13.90;99.90;;;;;;5053303;28;20185;-73
2022/05/26 01:40:47;;;;;;;43.75;19.95;;;13.90;99.90;;;;;;5051961;28;20101;-73
2022/05/26 01:43:30;;;;;;;44.97;20.40;;;13.90;99.90;;;;;;5049002;28;20454;-73
2022/05/26 01:46:12;;;;;;;42.38;20.63;;;13.90;99.90;;;;;;5052349;28;20052;-72
2022/05/26 01:48:48;;;;;;;47.42;20.60;;;13.90;99.90;;;;;;5060103;28;20078;-73
2022/05/26 01:51:32;;;;;;;42.25;20.15;;;13.90;99.90;;;;;;5053646;28;20399;-73
2022/05/26 01:54:08;;;;;;;55.95;20.73;;;13.90;99.90;;;;;;5048579;28;20029;-73
2022/05/26 01:56:52;;;;;;;46.88;20.15;;;13.90;99.90;;;;;;5067561;28;20043;-73
2022/05/26 01:59:36;;;;;;;47.67;20.20;;;13.90;99.90;;;;;;5050569;28;20493;-72
2022/05/26 02:02:09;;;;;;;44.08;20.92;;;13.90;99.90;;;;;;5053595;28;20032;-72
2022/05/26 02:04:44;;;;;;;49.33;21.23;;;13.90;99.90;;;;;;5051848;28;20040;-73
2022/05/26 02:07:30;;;;;;;47.22;21.17;;;13.90;99.90;;;;;;5045722;28;20491;-73
2022/05/26 02:10:00;;;;;;;44.42;21.10;;;13.90;99.90;;;;;;5045841;28;20040;-72
2022/05/26 02:12:31;;;;;;;44.47;21.55;;;13.90;99.90;;;;;;5052044;28;20069;-74
2022/05/26 02:15:06;;;;;;;44.47;19.38;;;13.80;99.90;;;;;;5049180;28;20465;-73
2022/05/26 02:17:40;;;;;;;43.67;20.45;;;13.80;99.90;;;;;;5051209;28;20525;-73
2022/05/26 02:20:35;;;;;;;45.50;20.80;;;13.90;99.90;;;;;;5035205;28;20041;-73
2022/05/26 02:23:12;;;;;;;49.58;21.63;;;13.90;99.90;;;;;;5048702;28;20553;-72
2022/05/26 02:25:38;;;;;;;55.58;22.00;;;13.80;99.90;;;;;;5046423;28;20446;-73
2022/05/26 02:28:05;;;;;;;44.13;20.27;;;13.80;99.90;;;;;;5046337;28;20491;-73
2022/05/26 02:30:36;;;;;;;55.72;20.88;;;13.90;99.90;;;;;;5051317;28;20731;-73
2022/05/26 02:33:06;;;;;;;54.87;22.30;;;13.90;99.90;;;;;;5051091;28;20460;-73
2022/05/26 02:35:37;;;;;;;44.30;20.30;;;13.90;99.90;;;;;;5052676;28;20515;-73
2022/05/26 02:38:07;;;;;;;55.75;21.00;;;13.90;99.90;;;;;;5050274;28;20525;-73
2022/05/26 02:40:33;;;;;;;57.30;21.95;;;13.90;99.90;;;;;;5048098;28;20509;-74
2022/05/26 02:43:10;;;;;;;53.03;20.65;;;13.90;99.90;;;;;;5045508;28;20041;-73
2022/05/26 02:45:44;;;;;;;51.30;19.50;;;13.90;99.90;;;;;;5051987;28;20475;-73
2022/05/26 02:48:56;;;;;;;51.30;20.17;;;13.90;99.90;;;;;;5049369;28;20087;-73
2022/05/26 02:51:50;;;;;;;52.95;19.30;;;13.90;99.90;;;;;;5062772;28;20045;-73
2022/05/26 02:54:35;;;;;;;49.83;18.48;;;13.90;99.90;;;;;;5042801;28;20514;-73
2022/05/26 02:57:13;;;;;;;47.70;18.13;;;14.00;99.90;;;;;;5045040;28;20042;-73
2022/05/26 03:00:03;;;;;;;43.17;15.48;;;14.00;99.90;;;;;;5039926;28;20403;-73
2022/05/26 03:02:51;;;;;;;51.35;15.43;;;14.00;99.90;;;;;;5045530;28;20537;-73
2022/05/26 03:05:41;;;;;;;47.95;14.38;;;14.00;99.90;;;;;;5044312;28;20045;-73
2022/05/26 03:08:13;;;;;;;45.35;14.00;;;14.00;99.90;;;;;;5034352;28;20094;-73
2022/05/26 03:10:52;;;;;;;40.35;13.30;;;14.00;99.90;;;;;;5046015;28;20536;-73
2022/05/26 03:13:23;;;;;;;48.40;13.95;;;14.10;99.90;;;;;;5049079;28;20500;-73
2022/05/26 03:15:49;;;;;;;44.50;13.25;;;14.10;99.90;;;;;;5046642;28;20170;-73
2022/05/26 03:18:14;;;;;;;51.85;13.40;;;14.10;99.90;;;;;;5033429;28;20119;-73
2022/05/26 03:20:40;;;;;;;49.78;13.70;;;14.10;99.90;;;;;;5053944;28;20044;-73
2022/05/26 03:23:06;;;;;;;49.20;13.88;;;14.10;99.90;;;;;;5060419;28;20040;-73
2022/05/26 03:25:31;;;;;;;43.03;12.80;;;14.20;99.90;;;;;;5047154;28;20037;-73
2022/05/26 03:27:57;;;;;;;52.75;13.35;;;14.20;99.90;;;;;;5036797;28;20037;-73
2022/05/26 03:30:22;;;;;;;45.72;11.98;;;14.20;99.90;;;;;;5052786;28;20045;-73
2022/05/26 03:32:48;;;;;;;50.88;11.48;;;14.20;99.90;;;;;;5046990;28;20047;-73
2022/05/26 03:40:56;;;;;;;44.08;10.68;;;14.10;99.90;;;;;;5049708;28;20508;-73
2022/05/26 03:43:28;;;;;;;41.20;10.82;;;14.10;99.90;;;;;;5068422;28;20036;-72
2022/05/26 03:45:54;;;;;;;38.97;10.50;;;14.10;99.90;;;;;;5051864;28;20434;-72
2022/05/26 03:48:19;;;;;;;47.83;10.80;;;14.10;99.90;;;;;;5054563;28;20040;-72
2022/05/26 03:50:45;;;;;;;45.17;10.70;;;14.10;99.90;;;;;;5049346;28;20028;-73
2022/05/26 03:53:11;;;;;;;45.28;10.80;;;14.10;99.90;;;;;;5050776;28;20029;-72
2022/05/26 03:55:36;;;;;;;43.78;9.95;;;14.10;99.90;;;;;;5050102;28;20036;-72
2022/05/26 03:58:03;;;;;;;44.28;9.55;;;14.10;99.90;;;;;;5050684;28;20048;-72
2022/05/26 04:00:30;;;;;;;45.28;9.38;;;14.10;99.90;;;;;;5049872;28;20080;-71
2022/05/26 04:02:55;;;;;;;47.47;9.75;;;14.10;99.90;;;;;;5049444;28;20043;-72
2022/05/26 04:05:21;;;;;;;34.85;8.23;;;14.10;99.90;;;;;;5051226;28;20041;-72
2022/05/26 04:07:47;;;;;;;43.15;9.10;;;14.10;99.90;;;;;;5028846;28;20037;-71
2022/05/26 04:10:13;;;;;;;32.90;8.38;;;14.10;99.90;;;;;;5046877;28;20102;-72
2022/05/26 04:12:42;;;;;;;35.60;7.88;;;14.10;99.90;;;;;;5045336;28;20055;-72
2022/05/26 04:15:09;;;;;;;35.45;7.55;;;14.10;99.90;;;;;;5051986;28;20033;-71
2022/05/26 04:17:36;;;;;;;34.42;6.80;;;14.10;99.90;;;;;;5049625;28;20487;-71
2022/05/26 04:20:04;;;;;;;30.27;6.15;;;14.10;99.90;;;;;;5046435;28;20087;-72
2022/05/26 04:22:29;;;;;;;31.75;6.45;;;14.00;99.90;;;;;;5048883;28;20044;-71
2022/05/26 04:24:57;;;;;;;37.05;6.55;;;14.00;99.90;;;;;;5049637;28;20147;-72
2022/05/26 04:27:26;;;;;;;31.45;6.55;;;14.00;99.90;;;;;;5048721;28;20450;-72
2022/05/26 04:29:52;;;;;;;31.55;5.85;;;14.00;99.90;;;;;;5051752;28;20036;-72
2022/05/26 04:32:19;;;;;;;23.05;4.85;;;14.00;99.90;;;;;;5031308;28;20064;-72
2022/05/26 04:34:48;;;;;;;30.13;5.72;;;13.90;99.90;;;;;;5052201;28;20491;-72
2022/05/26 04:37:18;;;;;;;19.40;4.80;;;13.90;99.90;;;;;;5048891;28;20482;-72
2022/05/26 04:39:43;;;;;;;27.98;5.63;;;13.90;99.90;;;;;;5046192;28;20033;-72
2022/05/26 04:42:09;;;;;;;23.27;5.10;;;13.90;99.90;;;;;;5032491;28;20066;-72
2022/05/26 04:44:44;;;;;;;19.05;4.32;;;13.80;99.90;;;;;;5052556;28;20052;-72
2022/05/26 04:47:12;;;;;;;19.65;4.10;;;13.90;99.90;;;;;;5051879;28;20044;-72
2022/05/26 04:49:38;;;;;;;17.42;3.63;;;13.80;99.90;;;;;;5047985;28;20037;-72
2022/05/26 04:52:09;;;;;;;15.77;3.53;;;13.80;99.90;;;;;;5030928;28;20049;-72
2022/05/26 04:54:36;;;;;;;18.50;3.47;;;13.80;99.90;;;;;;5050807;28;20071;-72
2022/05/26 04:57:03;;;;;;;14.93;3.40;;;13.80;99.90;;;;;;5030915;28;20163;-71
2022/05/26 04:59:30;;;;;;;10.27;2.72;;;13.80;99.90;;;;;;5052164;28;20511;-72
2022/05/26 05:01:56;;;;;;;19.58;3.42;;;13.80;99.90;;;;;;5051071;28;20636;-71
2022/05/26 05:04:24;;;;;;;13.88;3.47;;;13.80;99.90;;;;;;5026061;28;20037;-72
2022/05/26 05:06:51;;;;;;;17.45;3.10;;;13.80;99.90;;;;;;5054388;28;20035;-72
2022/05/26 05:09:16;;;;;;;13.57;2.90;;;13.80;99.90;;;;;;5054542;28;20040;-72
2022/05/26 05:11:42;;;;;;;15.45;3.08;;;13.80;99.90;;;;;;5051471;28;20057;-72
2022/05/26 05:14:08;;;;;;;14.73;2.80;;;13.80;99.90;;;;;;5051655;28;20036;-72
2022/05/26 05:16:42;;;;;;;14.63;3.10;;;13.80;99.90;;;;;;5054941;28;20041;-72
2022/05/26 05:19:09;;;;;;;15.75;2.85;;;13.80;99.90;;;;;;5054165;28;20039;-73
2022/05/26 05:21:41;;;;;;;12.57;3.10;;;13.80;99.90;;;;;;5051020;28;20044;-73
2022/05/26 05:24:15;;;;;;;12.48;2.78;;;13.80;99.90;;;;;;5054056;28;20029;-72
2022/05/26 05:26:45;;;;;;;12.73;2.80;;;13.80;99.90;;;;;;5049756;28;20037;-72
2022/05/26 05:29:15;;;;;;;14.20;2.80;;;13.80;99.90;;;;;;5054531;28;20040;-72
2022/05/26 05:31:50;;;;;;;16.05;2.63;;;13.80;99.90;;;;;;5052618;28;20170;-72
2022/05/26 05:34:37;;;;;;;12.63;2.75;;;13.80;99.90;;;;;;5054369;28;20033;-72
2022/05/26 05:37:05;;;;;;;11.35;2.10;;;13.90;99.90;;;;;;5053193;28;20107;-72
2022/05/26 05:39:30;;;;;;;10.80;2.65;;;14.00;99.90;;;;;;5052534;28;20079;-72
2022/05/26 05:41:58;;;;;;;12.20;2.25;;;14.00;99.90;;;;;;5052159;28;20051;-72
2022/05/26 05:44:24;;;;;;;12.45;1.92;;;14.10;99.90;;;;;;5053918;28;20037;-72
2022/05/26 05:46:53;;;;;;;11.35;2.22;;;14.20;99.90;;;;;;5050292;28;20029;-72
2022/05/26 05:49:20;;;;;;;11.85;2.15;;;14.30;99.90;;;;;;5052790;28;20511;-72
2022/05/26 05:51:46;;;;;;;10.48;2.03;;;14.30;99.90;;;;;;5048010;28;20051;-72
2022/05/26 05:54:12;;;;;;;10.13;1.65;;;14.40;99.90;;;;;;5052347;28;20395;-73
2022/05/26 05:56:38;;;;;;;9.52;2.13;;;14.40;99.90;;;;;;5047983;28;20163;-72
2022/05/26 05:59:04;;;;;;;6.22;1.55;;;14.50;99.90;;;;;;5052729;28;20045;-72
2022/05/26 06:01:31;;;;;;;10.32;1.90;;;14.50;99.90;;;;;;5052653;28;20053;-72
2022/05/26 06:03:56;;;;;;;5.80;1.58;;;14.60;99.90;;;;;;5048636;28;20051;-72
2022/05/26 06:06:22;;;;;;;10.07;1.90;;;14.70;99.90;;;;;;5051622;28;20037;-72
2022/05/26 06:08:47;;;;;;;9.85;1.90;;;14.70;99.90;;;;;;5049514;28;20049;-72
2022/05/26 06:11:13;;;;;;;6.63;1.38;;;14.80;99.90;;;;;;5050434;28;20051;-72
2022/05/26 06:13:39;;;;;;;8.55;1.40;;;14.90;99.90;;;;;;5053196;28;20573;-72
2022/05/26 06:16:05;;;;;;;5.90;1.60;;;15.00;99.90;;;;;;5053318;28;20063;-72
2022/05/26 06:18:32;;;;;;;7.32;1.45;;;15.20;99.90;;;;;;5051531;28;20435;-72
2022/05/26 06:21:03;;;;;;;8.38;1.45;;;15.30;99.90;;;;;;5053523;28;20068;-72
2022/05/26 06:23:28;;;;;;;8.95;1.65;;;15.30;99.90;;;;;;5052751;28;20029;-72
2022/05/26 06:25:54;;;;;;;6.20;1.35;;;15.30;99.90;;;;;;5052178;28;20105;-72
2022/05/26 06:31:03;;;;;;;8.30;1.45;;;15.30;99.90;;;;;;5051113;28;20090;-72
2022/05/26 06:38:58;;;;;;;7.18;1.25;;;15.40;99.90;;;;;;5049163;28;20033;-72
2022/05/26 06:44:08;;;;;;;7.38;1.30;;;15.60;99.90;;;;;;5053216;28;20040;-72
2022/05/26 06:46:34;;;;;;;6.55;1.40;;;15.70;99.90;;;;;;5052325;28;20538;-72
2022/05/26 06:49:00;;;;;;;6.15;1.20;;;15.80;99.90;;;;;;5050358;28;20600;-73
2022/05/26 06:51:28;;;;;;;7.18;1.25;;;15.80;99.90;;;;;;5046720;28;20561;-72
2022/05/26 06:53:55;;;;;;;11.10;1.30;;;15.80;99.90;;;;;;5043018;28;20312;-72
2022/05/26 06:56:21;;;;;;;12.30;1.63;;;15.80;99.90;;;;;;5053731;28;20402;-72
2022/05/26 06:58:46;;;;;;;4.82;1.35;;;15.70;99.90;;;;;;5048326;28;20044;-72
2022/05/26 07:01:14;;;;;;;3.42;1.08;;;15.70;99.90;;;;;;5051766;28;20114;-72
2022/05/26 07:03:40;;;;;;;6.00;1.40;;;15.80;99.90;;;;;;5045839;28;20799;-72
2022/05/26 07:06:17;;;;;;;5.30;1.05;;;15.70;99.90;;;;;;5048548;28;20117;-72
2022/05/26 07:08:47;;;;;;;7.50;1.20;;;15.90;99.90;;;;;;5042401;28;20402;-71
2022/05/26 07:11:14;;;;;;;5.00;1.42;;;16.00;99.90;;;;;;5046294;28;20493;-72
2022/05/26 07:13:40;;;;;;;6.20;1.23;;;16.00;99.90;;;;;;5044287;28;20415;-72
2022/05/26 07:16:07;;;;;;;4.30;0.95;;;16.10;99.90;;;;;;5047008;28;20040;-72
2022/05/26 07:18:33;;;;;;;5.80;1.20;;;16.10;99.90;;;;;;5047101;28;20795;-72
2022/05/26 07:21:03;;;;;;;4.47;1.08;;;16.00;99.90;;;;;;5040332;28;20044;-73
2022/05/26 07:23:29;;;;;;;6.38;1.48;;;16.00;99.90;;;;;;5036161;28;20040;-72
2022/05/26 07:25:55;;;;;;;5.93;1.30;;;16.10;99.90;;;;;;5046823;28;20429;-72
2022/05/26 07:28:23;;;;;;;6.57;1.25;;;16.20;99.90;;;;;;5043702;28;20174;-72
2022/05/26 07:30:49;;;;;;;4.90;1.10;;;16.20;99.90;;;;;;5044766;28;20519;-72
2022/05/26 07:33:15;;;;;;;4.25;1.25;;;16.10;99.90;;;;;;5046882;28;20518;-72
2022/05/26 07:35:41;;;;;;;5.28;1.10;;;16.20;99.90;;;;;;5041445;28;20476;-72
2022/05/26 07:43:37;;;;;;;5.95;1.13;;;16.40;99.90;;;;;;5063359;28;20560;-72
2022/05/26 07:46:04;;;;;;;4.80;1.20;;;16.60;99.90;;;;;;5049450;28;20029;-73
2022/05/26 07:48:30;;;;;;;5.80;1.02;;;16.60;99.90;;;;;;5047659;28;20084;-73
2022/05/26 07:50:56;;;;;;;5.25;1.08;;;16.80;99.90;;;;;;5046638;28;20064;-72
2022/05/26 07:53:22;;;;;;;4.97;1.30;;;16.90;99.90;;;;;;5046235;28;20067;-72
2022/05/26 07:55:48;;;;;;;7.05;1.02;;;16.90;99.90;;;;;;5044414;28;20033;-72
2022/05/26 07:58:14;;;;;;;6.50;0.98;;;17.10;99.90;;;;;;5044685;28;20450;-72
2022/05/26 08:00:40;;;;;;;4.25;0.88;;;17.10;99.90;;;;;;5045890;28;20033;-72
2022/05/26 08:03:07;;;;;;;7.18;1.17;;;17.00;99.90;;;;;;5041982;28;20127;-72
2022/05/26 08:05:33;;;;;;;7.50;1.48;;;16.90;99.90;;;;;;5045912;28;20028;-72
2022/05/26 08:07:59;;;;;;;5.95;1.13;;;17.00;99.90;;;;;;5043709;28;20388;-72
2022/05/26 08:10:25;;;;;;;3.25;1.08;;;17.00;99.90;;;;;;5045269;28;20040;-72
2022/05/26 08:12:51;;;;;;;2.03;0.90;;;16.90;99.90;;;;;;5044552;28;20036;-72
2022/05/26 08:15:17;;;;;;;5.80;1.20;;;17.00;99.90;;;;;;5043497;28;20041;-72
2022/05/26 08:17:42;;;;;;;5.55;1.48;;;17.10;99.90;;;;;;5044992;28;20060;-72
2022/05/26 08:20:10;;;;;;;5.05;1.48;;;17.40;99.90;;;;;;5042826;28;20148;-73
2022/05/26 08:22:35;;;;;;;2.80;0.90;;;17.50;99.90;;;;;;5041866;28;20119;-73
2022/05/26 08:25:02;;;;;;;5.75;0.93;;;17.60;99.90;;;;;;5027918;28;20143;-73
2022/05/26 08:27:28;;;;;;;3.22;1.00;;;17.60;99.90;;;;;;5044277;28;20041;-73
2022/05/26 08:29:54;;;;;;;3.78;0.93;;;17.70;99.90;;;;;;5044691;28;20592;-73
2022/05/26 08:32:21;;;;;;;2.65;0.77;;;17.90;99.90;;;;;;5043786;28;20451;-73
2022/05/26 08:34:48;;;;;;;3.28;0.90;;;17.80;99.90;;;;;;5043362;28;20390;-74
2022/05/26 08:37:19;;;;;;;7.88;1.40;;;17.90;99.90;;;;;;5044554;28;20249;-72
2022/05/26 08:39:46;;;;;;;4.47;0.97;;;18.10;99.90;;;;;;5045390;28;20052;-78
2022/05/26 08:42:22;;;;;;;3.10;0.80;;;18.20;99.90;;;;;;5045482;28;20213;-72
2022/05/26 08:44:49;;;;;;;4.57;0.98;;;18.10;99.90;;;;;;5041665;28;20064;-72
2022/05/26 08:47:18;;;;;;;5.32;1.35;;;18.10;99.90;;;;;;5045624;28;20206;-72
2022/05/26 08:49:56;;;;;;;4.00;0.90;;;18.20;99.90;;;;;;5049406;28;20671;-80
2022/05/26 08:52:25;;;;;;;4.22;0.95;;;18.40;99.90;;;;;;5056011;28;20051;-80
2022/05/26 08:54:53;;;;;;;4.03;1.10;;;18.40;99.90;;;;;;5051164;28;20044;-80
2022/05/26 08:57:26;;;;;;;5.15;0.85;;;18.40;99.90;;;;;;5052406;28;20045;-80
2022/05/26 08:59:52;;;;;;;4.32;0.85;;;18.50;99.90;;;;;;5043524;28;20041;-80
2022/05/26 09:02:26;;;;;;;3.75;0.90;;;18.60;99.90;;;;;;5054876;28;20491;-80
2022/05/26 09:04:55;;;;;;;2.92;1.00;;;18.70;99.90;;;;;;5052474;28;20044;-80
2022/05/26 09:13:02;;;;;;;4.50;1.00;;;18.80;99.90;;;;;;5046232;28;20072;-81
2022/05/26 09:15:29;;;;;;;3.63;1.00;;;18.90;99.90;;;;;;5048950;28;20037;-79
2022/05/26 09:17:55;;;;;;;7.63;1.27;;;18.70;99.10;;;;;;5046203;28;20086;-78
2022/05/26 09:20:49;;;;;;;4.70;1.10;;;18.40;99.90;;;;;;5051337;28;20426;-80
2022/05/26 09:23:27;;;;;;;4.13;1.00;;;18.10;99.90;;;;;;5056946;28;20057;-80
2022/05/26 09:26:06;;;;;;;7.97;1.30;;;17.80;99.90;;;;;;5046274;28;20033;-79
2022/05/26 09:28:50;;;;;;;5.20;1.10;;;17.60;99.90;;;;;;5043609;28;20072;-79
2022/05/26 09:31:23;;;;;;;3.95;0.98;;;17.50;99.90;;;;;;5049521;28;20119;-79
2022/05/26 09:34:10;;;;;;;4.43;1.00;;;17.50;99.90;;;;;;5048371;28;20082;-80
2022/05/26 09:37:02;;;;;;;5.63;1.17;;;17.50;99.90;;;;;;5046698;28;20067;-79
2022/05/26 09:39:37;;;;;;;6.65;1.15;;;17.60;99.90;;;;;;5035452;28;20052;-79
2022/05/26 09:42:17;;;;;;;3.15;0.80;;;17.80;99.90;;;;;;5045108;28;20124;-79
2022/05/26 09:45:11;;;;;;;3.30;1.00;;;18.00;99.90;;;;;;5025943;28;20051;-73
2022/05/26 09:47:48;;;;;;;4.57;1.00;;;18.20;99.90;;;;;;5045062;28;20037;-72
2022/05/26 09:50:33;;;;;;;7.00;1.38;;;18.40;99.90;;;;;;5044564;28;20090;-72
2022/05/26 09:53:00;;;;;;;3.53;1.00;;;18.50;99.90;;;;;;5045963;28;20040;-72
2022/05/26 09:55:32;;;;;;;3.83;0.82;;;18.30;99.90;;;;;;5048359;28;20067;-72
2022/05/26 09:58:31;;;;;;;3.40;1.00;;;18.30;98.50;;;;;;5045187;28;20028;-72
2022/05/26 10:01:00;;;;;;;2.95;1.02;;;18.70;99.90;;;;;;5037978;28;20037;-72
2022/05/26 10:04:04;;;;;;;5.13;0.80;;;18.90;99.90;;;;;;5019708;28;20033;-72
2022/05/26 10:06:55;;;;;;;6.57;1.00;;;19.40;99.90;;;;;;5021867;28;20040;-72
2022/05/26 10:09:44;;;;;;;6.28;0.98;;;19.60;99.90;;;;;;5030967;28;20073;-71
2022/05/26 10:12:30;;;;;;;3.28;0.90;;;19.50;94.90;;;;;;5030046;28;20029;-72
2022/05/26 10:15:12;;;;;;;4.47;0.82;;;19.10;95.50;;;;;;5046887;28;20119;-71
2022/05/26 10:17:54;;;;;;;3.67;0.95;;;18.60;98.20;;;;;;5012469;28;20037;-71
2022/05/26 10:20:30;;;;;;;3.58;0.82;;;18.20;99.90;;;;;;5067639;28;20049;-72
2022/05/26 10:23:24;;;;;;;5.00;1.50;;;18.10;99.90;;;;;;5044271;28;20049;-71
2022/05/26 10:26:30;;;;;;;4.57;0.93;;;17.90;99.90;;;;;;5047201;28;20041;-71
2022/05/26 10:29:24;;;;;;;3.33;1.00;;;17.70;99.90;;;;;;5041960;28;20032;-71
2022/05/26 10:32:10;;;;;;;4.18;1.00;;;17.60;99.90;;;;;;5047473;28;20037;-71
2022/05/26 10:35:24;;;;;;;3.58;1.33;;;17.60;99.90;;;;;;5049217;28;20086;-72
2022/05/26 10:38:19;;;;;;;2.80;1.00;;;17.50;99.90;;;;;;5029511;28;20491;-72
2022/05/26 10:41:23;;;;;;;4.30;1.20;;;17.70;99.90;;;;;;5045711;28;20041;-72
2022/05/26 10:44:09;;;;;;;5.32;1.20;;;18.00;99.90;;;;;;5045892;28;20037;-72
2022/05/26 10:46:41;;;;;;;4.25;1.40;;;18.10;99.90;;;;;;5043209;28;20041;-72
2022/05/26 10:49:18;;;;;;;5.23;1.50;;;18.00;99.90;;;;;;5043126;28;20095;-72
2022/05/26 10:52:12;;;;;;;4.47;1.40;;;17.80;99.90;;;;;;5042760;28;20040;-73
2022/05/26 10:54:57;;;;;;;6.15;1.70;;;17.70;99.90;;;;;;5046303;28;20143;-72
2022/05/26 10:57:50;;;;;;;3.95;1.25;;;17.60;99.90;;;;;;5039691;28;20037;-72
2022/05/26 11:00:24;;;;;;;4.43;1.45;;;17.70;99.90;;;;;;5045394;28;20030;-72
2022/05/26 11:03:11;;;;;;;6.25;1.63;;;17.90;99.90;;;;;;5044113;28;20045;-72
2022/05/26 11:05:45;;;;;;;4.30;1.30;;;18.60;99.90;;;;;;5062399;28;20033;-72
2022/05/26 11:08:34;;;;;;;9.48;1.58;;;19.10;99.90;;;;;;5044228;28;20045;-72
2022/05/26 11:11:09;;;;;;;5.43;1.75;;;19.30;99.90;;;;;;5047781;28;20044;-72
2022/05/26 11:13:47;;;;;;;6.35;1.45;;;19.40;99.90;;;;;;5042582;28;20040;-72
2022/05/26 11:19:37;;;;;;;9.57;1.67;;;19.30;98.70;;;;;;5042424;28;20033;-72
2022/05/26 11:22:04;;;;;;;3.67;1.13;;;19.10;97.10;;;;;;5042729;28;20511;-72
2022/05/26 11:24:31;;;;;;;10.45;1.52;;;19.00;99.90;;;;;;5044341;28;20487;-72
2022/05/26 11:27:11;;;;;;;6.93;1.58;;;19.00;98.20;;;;;;5042759;28;20049;-72
2022/05/26 11:29:44;;;;;;;4.95;1.40;;;19.30;99.90;;;;;;5044099;28;20044;-73
2022/05/26 11:38:08;;;;;;;8.25;1.30;;;19.00;99.90;;;;;;5043540;28;20152;-73
2022/05/26 11:40:42;;;;;;;4.68;1.30;;;18.80;99.90;;;;;;5044654;28;20076;-73
2022/05/26 11:43:08;;;;;;;4.90;1.15;;;18.80;99.90;;;;;;5044689;28;20087;-73
2022/05/26 11:45:48;;;;;;;6.97;1.63;;;18.70;99.90;;;;;;5047468;28;20045;-73
2022/05/26 11:48:32;;;;;;;4.30;1.42;;;18.80;99.90;;;;;;5043977;28;20127;-73
2022/05/26 11:51:29;;;;;;;7.15;1.23;;;18.90;99.90;;;;;;5044081;28;20052;-73
2022/05/26 11:53:56;;;;;;;5.40;1.40;;;19.00;99.90;;;;;;5041849;28;20041;-73
2022/05/26 11:56:28;;;;;;;6.45;1.20;;;19.20;99.90;;;;;;5044599;28;20086;-73
2022/05/26 11:59:20;;;;;;;4.43;1.15;;;19.30;99.90;;;;;;5039775;28;20143;-73
2022/05/26 12:01:47;;;;;;;7.50;1.10;;;19.40;99.90;;;;;;5042974;28;20041;-73
2022/05/26 12:04:27;;;;;;;7.45;1.20;;;19.40;99.90;;;;;;5041258;28;20662;-73
2022/05/26 12:06:58;;;;;;;5.90;1.30;;;19.60;99.90;;;;;;5045184;28;20037;-73
2022/05/26 12:09:35;;;;;;;7.47;1.50;;;19.90;99.90;;;;;;5040191;28;20036;-73
2022/05/26 12:12:03;;;;;;;6.13;1.20;;;19.80;99.00;;;;;;5041593;28;20076;-73
2022/05/26 12:14:46;;;;;;;3.80;0.80;;;19.60;99.90;;;;;;5041769;28;20051;-73
2022/05/26 12:17:33;;;;;;;3.80;1.25;;;19.90;99.90;;;;;;5044826;28;20051;-73
2022/05/26 12:20:04;;;;;;;6.93;1.50;;;20.10;99.90;;;;;;5049542;28;20111;-73
2022/05/26 12:22:36;;;;;;;5.57;1.20;;;20.30;99.90;;;;;;5025963;28;20053;-73
2022/05/26 12:25:21;;;;;;;4.43;1.27;;;20.30;98.60;;;;;;5035912;28;20207;-73
2022/05/26 12:28:09;;;;;;;5.60;1.30;;;20.20;98.00;;;;;;5060820;28;20483;-74
2022/05/26 12:31:00;;;;;;;5.40;1.50;;;19.80;97.60;;;;;;5044212;28;20487;-74
2022/05/26 12:33:42;;;;;;;5.10;1.60;;;19.60;99.90;;;;;;5036416;28;20551;-73
2022/05/26 12:36:40;;;;;;;7.72;1.50;;;19.70;99.90;;;;;;5061616;28;20797;-74
2022/05/26 12:39:31;;;;;;;6.43;1.42;;;19.70;99.90;;;;;;5038093;28;20625;-74
2022/05/26 12:42:18;;;;;;;6.45;1.40;;;19.70;99.90;;;;;;5029027;28;20647;-73
2022/05/26 12:45:38;;;;;;;6.43;1.33;;;19.80;99.90;;;;;;5063345;28;20391;-73
2022/05/26 12:48:40;;;;;;;7.63;1.48;;;19.80;98.30;;;;;;4982070;28;20543;-74
2022/05/26 12:51:10;;;;;;;;;;;19.70;99.90;;;;;;5037959;28;20407;-74
2022/05/26 12:53:39;;;;;;;9.38;1.65;;;19.90;99.90;;;;;;5042960;28;20039;-73
2022/05/26 12:56:10;;;;;;;7.70;1.63;;;20.10;99.90;;;;;;5043313;28;20471;-73
2022/05/26 12:58:39;;;;;;;3.17;1.10;;;20.30;96.60;;;;;;5041370;28;20452;-72
2022/05/26 13:01:12;;;;;;;6.72;1.50;;;20.40;99.70;;;;;;5042382;28;20048;-73
2022/05/26 13:03:52;;;;;;;6.38;1.52;;;20.00;96.90;;;;;;5042007;28;20509;-73
2022/05/26 13:06:20;;;;;;;7.80;1.42;;;20.10;99.90;;;;;;5041482;28;20403;-73
2022/05/26 13:08:51;;;;;;;7.75;1.75;;;20.20;95.40;;;;;;5043527;28;20037;-74
2022/05/26 13:11:43;;;;;;;5.60;1.65;;;20.00;98.60;;;;;;5043055;28;20052;-73
2022/05/26 13:14:23;;;;;;;4.57;1.60;;;20.10;97.40;;;;;;5042777;28;20037;-73
2022/05/26 13:17:01;;;;;;;8.57;1.70;;;20.20;99.90;;;;;;5040037;28;20029;-75
2022/05/26 13:19:27;;;;;;;7.00;1.65;;;20.30;98.80;;;;;;5023113;28;20053;-73
2022/05/26 13:21:55;;;;;;;6.65;1.75;;;20.40;99.60;;;;;;5042293;28;20086;-73
2022/05/26 13:24:30;;;;;;;6.90;1.58;;;20.30;98.40;;;;;;5044272;28;20072;-73
2022/05/26 13:27:03;;;;;;;7.35;1.50;;;20.10;98.10;;;;;;5045374;28;20044;-73
2022/05/26 13:29:32;;;;;;;7.82;1.50;;;19.90;99.90;;;;;;5044083;28;20041;-73
2022/05/26 13:34:48;;;;;;;8.15;1.60;;;19.80;99.90;;;;;;5047503;28;20083;-73
2022/05/26 13:37:17;;;;;;;8.10;1.48;;;19.70;99.90;;;;;;5046101;28;20041;-73
2022/05/26 13:39:43;;;;;;;4.35;1.10;;;19.80;99.90;;;;;;5044356;28;20041;-73
2022/05/26 13:42:10;;;;;;;5.20;1.50;;;19.70;99.90;;;;;;5045835;28;20506;-72
2022/05/26 13:44:41;;;;;;;7.10;1.60;;;19.60;99.90;;;;;;5044049;28;20127;-73
2022/05/26 13:47:11;;;;;;;6.82;1.65;;;19.60;99.50;;;;;;5063909;28;20129;-73
2022/05/26 13:50:00;;;;;;;7.85;1.90;;;19.50;99.90;;;;;;5043580;28;20037;-73
2022/05/26 13:52:28;;;;;;;7.43;1.65;;;19.60;99.90;;;;;;5047700;28;20114;-73